C6024 KDCA-KECG
Flight info
| Callsign | C6024 |
|---|---|
| Flight time | 1h 42m |
| Altitude | VFR/020 |
| Route | |
| Aircraft | H60/M-DOV/C |
Departure
| Time | 2026-05-06 02:01 |
|---|---|
| Airport | Ronald Reagan Washington National Airport (KDCA) |
Arrival
| Time | 2026-05-06 03:43 |
|---|---|
| Airport | Elizabeth City Regional Airport & Coast Guard Air Station (KECG) |
| Time | Latitude | Longitude | Altitude | Speed | Heading |
|---|---|---|---|---|---|
| 2026-05-06 01:47 | 38.84605 | -77.04595 | 19 ft | 0 kts | 270° |
| 2026-05-06 02:00 | 38.84605 | -77.04596 | 20 ft | 1 kts | 270° |
| 2026-05-06 02:00 | 38.84608 | -77.04690 | 102 ft | 27 kts | 281° |
| 2026-05-06 02:00 | 38.84512 | -77.05078 | 271 ft | 68 kts | 230° |
| 2026-05-06 02:00 | 38.84095 | -77.05609 | 561 ft | 103 kts | 220° |
| 2026-05-06 02:01 | 38.83491 | -77.06259 | 638 ft | 117 kts | 215° |
| 2026-05-06 02:01 | 38.82858 | -77.06886 | 779 ft | 114 kts | 215° |
| 2026-05-06 02:01 | 38.82207 | -77.07486 | 857 ft | 112 kts | 215° |
| 2026-05-06 02:01 | 38.81596 | -77.08086 | 929 ft | 110 kts | 215° |
| 2026-05-06 02:02 | 38.80987 | -77.08663 | 1052 ft | 107 kts | 215° |
| 2026-05-06 02:02 | 38.80432 | -77.09240 | 1210 ft | 104 kts | 215° |
| 2026-05-06 02:02 | 38.79801 | -77.09840 | 1134 ft | 115 kts | 211° |
| 2026-05-06 02:02 | 38.79163 | -77.10365 | 1159 ft | 108 kts | 208° |
| 2026-05-06 02:03 | 38.78474 | -77.10690 | 1340 ft | 100 kts | 187° |
| 2026-05-06 02:03 | 38.77811 | -77.10686 | 1516 ft | 87 kts | 185° |
| 2026-05-06 02:03 | 38.77121 | -77.10665 | 1554 ft | 99 kts | 185° |
| 2026-05-06 02:03 | 38.76412 | -77.10656 | 1557 ft | 101 kts | 185° |
| 2026-05-06 02:04 | 38.75706 | -77.10625 | 1555 ft | 101 kts | 185° |
| 2026-05-06 02:04 | 38.75009 | -77.10590 | 1559 ft | 102 kts | 185° |
| 2026-05-06 02:04 | 38.74301 | -77.10528 | 1559 ft | 101 kts | 185° |
| 2026-05-06 02:04 | 38.73610 | -77.10452 | 1551 ft | 98 kts | 185° |
| 2026-05-06 02:05 | 38.72934 | -77.10369 | 1558 ft | 98 kts | 185° |
| 2026-05-06 02:05 | 38.72238 | -77.10342 | 1567 ft | 93 kts | 197° |
| 2026-05-06 02:05 | 38.71587 | -77.10553 | 1540 ft | 113 kts | 206° |
| 2026-05-06 02:05 | 38.70900 | -77.11001 | 1558 ft | 100 kts | 208° |
| 2026-05-06 02:06 | 38.70304 | -77.11374 | 1562 ft | 97 kts | 208° |
| 2026-05-06 02:06 | 38.69699 | -77.11751 | 1561 ft | 97 kts | 208° |
| 2026-05-06 02:06 | 38.69099 | -77.12129 | 1561 ft | 97 kts | 208° |
| 2026-05-06 02:06 | 38.68492 | -77.12505 | 1558 ft | 96 kts | 208° |
| 2026-05-06 02:07 | 38.67892 | -77.12886 | 1561 ft | 98 kts | 208° |
| 2026-05-06 02:07 | 38.67276 | -77.13283 | 1563 ft | 98 kts | 208° |
| 2026-05-06 02:07 | 38.66669 | -77.13658 | 1597 ft | 97 kts | 208° |
| 2026-05-06 02:07 | 38.66112 | -77.14075 | 1601 ft | 87 kts | 217° |
| 2026-05-06 02:08 | 38.65720 | -77.14635 | 1601 ft | 87 kts | 229° |
| 2026-05-06 02:08 | 38.65290 | -77.15362 | 1589 ft | 101 kts | 229° |
| 2026-05-06 02:08 | 38.64892 | -77.16066 | 1588 ft | 97 kts | 229° |
| 2026-05-06 02:08 | 38.64497 | -77.16795 | 1592 ft | 99 kts | 226° |
| 2026-05-06 02:09 | 38.64051 | -77.17371 | 1609 ft | 85 kts | 212° |
| 2026-05-06 02:09 | 38.63489 | -77.17850 | 1585 ft | 100 kts | 212° |
| 2026-05-06 02:09 | 38.62952 | -77.18341 | 1596 ft | 96 kts | 212° |
| 2026-05-06 02:09 | 38.62409 | -77.18845 | 1599 ft | 98 kts | 212° |
| 2026-05-06 02:10 | 38.61857 | -77.19328 | 1599 ft | 94 kts | 212° |
| 2026-05-06 02:10 | 38.61321 | -77.19805 | 1599 ft | 94 kts | 212° |
| 2026-05-06 02:10 | 38.60788 | -77.20293 | 1599 ft | 96 kts | 212° |
| 2026-05-06 02:10 | 38.60240 | -77.20799 | 1599 ft | 98 kts | 212° |
| 2026-05-06 02:11 | 38.59683 | -77.21313 | 1601 ft | 99 kts | 212° |
| 2026-05-06 02:11 | 38.59119 | -77.21828 | 1604 ft | 98 kts | 212° |
| 2026-05-06 02:11 | 38.58556 | -77.22345 | 1602 ft | 99 kts | 212° |
| 2026-05-06 02:11 | 38.58004 | -77.22830 | 1605 ft | 93 kts | 212° |
| 2026-05-06 02:12 | 38.57450 | -77.23311 | 1600 ft | 98 kts | 212° |
| 2026-05-06 02:12 | 38.56885 | -77.23799 | 1602 ft | 99 kts | 212° |
| 2026-05-06 02:12 | 38.56319 | -77.24286 | 1607 ft | 99 kts | 212° |
| 2026-05-06 02:12 | 38.55757 | -77.24772 | 1603 ft | 99 kts | 212° |
| 2026-05-06 02:13 | 38.55199 | -77.25245 | 1606 ft | 96 kts | 212° |
| 2026-05-06 02:13 | 38.54646 | -77.25711 | 1609 ft | 94 kts | 212° |
| 2026-05-06 02:13 | 38.54104 | -77.26176 | 1603 ft | 96 kts | 212° |
| 2026-05-06 02:13 | 38.53541 | -77.26654 | 1605 ft | 94 kts | 212° |
| 2026-05-06 02:14 | 38.53002 | -77.27108 | 1604 ft | 94 kts | 212° |
| 2026-05-06 02:14 | 38.52435 | -77.27602 | 1600 ft | 100 kts | 212° |
| 2026-05-06 02:14 | 38.51870 | -77.28088 | 1605 ft | 99 kts | 212° |
| 2026-05-06 02:14 | 38.51324 | -77.28539 | 1603 ft | 92 kts | 212° |
| 2026-05-06 02:15 | 38.50786 | -77.28991 | 1605 ft | 92 kts | 212° |
| 2026-05-06 02:15 | 38.50260 | -77.29434 | 1603 ft | 93 kts | 212° |
| 2026-05-06 02:15 | 38.49698 | -77.29872 | 1602 ft | 99 kts | 202° |
| 2026-05-06 02:15 | 38.49047 | -77.30148 | 1608 ft | 92 kts | 199° |
| 2026-05-06 02:16 | 38.48398 | -77.30383 | 1608 ft | 99 kts | 199° |
| 2026-05-06 02:16 | 38.47737 | -77.30623 | 1605 ft | 100 kts | 199° |
| 2026-05-06 02:16 | 38.47075 | -77.30862 | 1603 ft | 99 kts | 199° |
| 2026-05-06 02:16 | 38.46401 | -77.31087 | 1596 ft | 105 kts | 194° |
| 2026-05-06 02:17 | 38.45636 | -77.31086 | 1590 ft | 119 kts | 179° |
| 2026-05-06 02:17 | 38.44860 | -77.30753 | 1602 ft | 112 kts | 162° |
| 2026-05-06 02:17 | 38.44274 | -77.30137 | 1612 ft | 117 kts | 149° |
| 2026-05-06 02:17 | 38.43681 | -77.29411 | 1610 ft | 117 kts | 149° |
| 2026-05-06 02:18 | 38.43093 | -77.28690 | 1606 ft | 117 kts | 149° |
| 2026-05-06 02:18 | 38.42501 | -77.27985 | 1613 ft | 114 kts | 149° |
| 2026-05-06 02:18 | 38.41911 | -77.27299 | 1607 ft | 115 kts | 149° |
| 2026-05-06 02:18 | 38.41322 | -77.26612 | 1606 ft | 114 kts | 150° |
| 2026-05-06 02:19 | 38.40733 | -77.25923 | 1606 ft | 114 kts | 150° |
| 2026-05-06 02:19 | 38.40144 | -77.25234 | 1604 ft | 114 kts | 150° |
| 2026-05-06 02:19 | 38.39558 | -77.24545 | 1604 ft | 115 kts | 150° |
| 2026-05-06 02:19 | 38.38973 | -77.23854 | 1602 ft | 114 kts | 150° |
| 2026-05-06 02:20 | 38.37830 | -77.22481 | 1610 ft | 111 kts | 152° |
| 2026-05-06 02:20 | 38.37268 | -77.21791 | 1604 ft | 111 kts | 152° |
| 2026-05-06 02:20 | 38.36703 | -77.21112 | 1603 ft | 112 kts | 152° |
| 2026-05-06 02:21 | 38.36140 | -77.20436 | 1602 ft | 110 kts | 152° |
| 2026-05-06 02:21 | 38.35590 | -77.19754 | 1600 ft | 111 kts | 152° |
| 2026-05-06 02:21 | 38.35044 | -77.19055 | 1600 ft | 111 kts | 152° |
| 2026-05-06 02:21 | 38.34499 | -77.18353 | 1599 ft | 111 kts | 152° |
| 2026-05-06 02:22 | 38.33960 | -77.17650 | 1599 ft | 111 kts | 152° |
| 2026-05-06 02:22 | 38.33417 | -77.16943 | 1601 ft | 111 kts | 153° |
| 2026-05-06 02:22 | 38.32883 | -77.16233 | 1598 ft | 111 kts | 153° |
| 2026-05-06 02:22 | 38.32379 | -77.15513 | 1696 ft | 100 kts | 152° |
| 2026-05-06 02:23 | 38.31960 | -77.14864 | 2157 ft | 102 kts | 152° |
| 2026-05-06 02:23 | 38.31427 | -77.14102 | 2289 ft | 112 kts | 152° |
| 2026-05-06 02:23 | 38.30931 | -77.13309 | 2459 ft | 122 kts | 149° |
| 2026-05-06 02:23 | 38.30413 | -77.12502 | 2452 ft | 121 kts | 149° |
| 2026-05-06 02:24 | 38.29879 | -77.11693 | 2427 ft | 120 kts | 149° |
| 2026-05-06 02:24 | 38.29342 | -77.10885 | 2436 ft | 118 kts | 149° |
| 2026-05-06 02:24 | 38.28824 | -77.10098 | 2634 ft | 119 kts | 149° |
| 2026-05-06 02:24 | 38.28194 | -77.09239 | 2657 ft | 139 kts | 149° |
| 2026-05-06 02:25 | 38.27539 | -77.08374 | 2888 ft | 132 kts | 149° |
| 2026-05-06 02:25 | 38.26917 | -77.07540 | 3204 ft | 124 kts | 149° |
| 2026-05-06 02:25 | 38.26381 | -77.06764 | 3750 ft | 109 kts | 149° |
| 2026-05-06 02:25 | 38.25930 | -77.06028 | 4394 ft | 103 kts | 149° |
| 2026-05-06 02:26 | 38.25455 | -77.05281 | 4842 ft | 123 kts | 149° |
| 2026-05-06 02:26 | 38.24823 | -77.04421 | 4764 ft | 120 kts | 149° |
| 2026-05-06 02:26 | 38.24262 | -77.03618 | 4869 ft | 140 kts | 149° |
| 2026-05-06 02:26 | 38.23560 | -77.02705 | 4548 ft | 138 kts | 149° |
| 2026-05-06 02:27 | 38.22944 | -77.01854 | 4211 ft | 130 kts | 149° |
| 2026-05-06 02:27 | 38.22338 | -77.01004 | 3950 ft | 130 kts | 149° |
| 2026-05-06 02:27 | 38.21788 | -77.00197 | 4037 ft | 108 kts | 149° |
| 2026-05-06 02:27 | 38.21261 | -76.99417 | 4387 ft | 124 kts | 149° |
| 2026-05-06 02:28 | 38.20655 | -76.98587 | 4656 ft | 131 kts | 149° |
| 2026-05-06 02:28 | 38.20022 | -76.97743 | 4921 ft | 132 kts | 149° |
| 2026-05-06 02:28 | 38.19393 | -76.96900 | 5190 ft | 129 kts | 149° |
| 2026-05-06 02:28 | 38.18783 | -76.96070 | 5528 ft | 133 kts | 149° |
| 2026-05-06 02:29 | 38.18150 | -76.95217 | 5471 ft | 132 kts | 149° |
| 2026-05-06 02:29 | 38.17519 | -76.94367 | 5515 ft | 131 kts | 149° |
| 2026-05-06 02:29 | 38.16889 | -76.93516 | 5522 ft | 132 kts | 149° |
| 2026-05-06 02:29 | 38.16260 | -76.92666 | 5518 ft | 132 kts | 149° |
| 2026-05-06 02:30 | 38.15630 | -76.91815 | 5519 ft | 132 kts | 149° |
| 2026-05-06 02:30 | 38.14994 | -76.90962 | 5522 ft | 132 kts | 149° |
| 2026-05-06 02:30 | 38.14364 | -76.90112 | 5524 ft | 132 kts | 149° |
| 2026-05-06 02:30 | 38.13731 | -76.89267 | 5524 ft | 132 kts | 149° |
| 2026-05-06 02:31 | 38.13105 | -76.88428 | 5529 ft | 133 kts | 149° |
| 2026-05-06 02:31 | 38.12467 | -76.87583 | 5525 ft | 133 kts | 149° |
| 2026-05-06 02:31 | 38.11823 | -76.86739 | 5526 ft | 133 kts | 149° |
| 2026-05-06 02:31 | 38.11159 | -76.85907 | 5527 ft | 135 kts | 149° |
| 2026-05-06 02:32 | 38.10494 | -76.85078 | 5522 ft | 133 kts | 149° |
| 2026-05-06 02:32 | 38.09841 | -76.84262 | 5533 ft | 135 kts | 149° |
| 2026-05-06 02:32 | 38.09174 | -76.83424 | 5533 ft | 134 kts | 149° |
| 2026-05-06 02:32 | 38.08511 | -76.82590 | 5535 ft | 135 kts | 149° |
| 2026-05-06 02:33 | 38.07852 | -76.81757 | 5534 ft | 133 kts | 149° |
| 2026-05-06 02:33 | 38.07413 | -76.81202 | 5534 ft | 133 kts | 149° |
| 2026-05-06 02:33 | 38.05882 | -76.79234 | 5534 ft | 134 kts | 149° |
| 2026-05-06 02:34 | 38.05223 | -76.78388 | 5534 ft | 134 kts | 149° |
| 2026-05-06 02:34 | 38.04567 | -76.77543 | 5535 ft | 135 kts | 149° |
| 2026-05-06 02:34 | 38.03911 | -76.76700 | 5535 ft | 134 kts | 149° |
| 2026-05-06 02:34 | 38.03256 | -76.75857 | 5535 ft | 135 kts | 149° |
| 2026-05-06 02:35 | 38.02607 | -76.75018 | 5533 ft | 134 kts | 149° |
| 2026-05-06 02:35 | 38.01951 | -76.74172 | 5532 ft | 135 kts | 149° |
| 2026-05-06 02:35 | 38.01291 | -76.73324 | 5532 ft | 135 kts | 149° |
| 2026-05-06 02:35 | 38.00627 | -76.72476 | 5532 ft | 135 kts | 149° |
| 2026-05-06 02:36 | 37.99960 | -76.71628 | 5532 ft | 136 kts | 149° |
| 2026-05-06 02:36 | 37.99510 | -76.71058 | 5536 ft | 135 kts | 149° |
| 2026-05-06 02:36 | 37.98630 | -76.69946 | 5537 ft | 134 kts | 149° |
| 2026-05-06 02:36 | 37.98189 | -76.69392 | 5537 ft | 134 kts | 149° |
| 2026-05-06 02:37 | 37.97523 | -76.68559 | 5539 ft | 135 kts | 149° |
| 2026-05-06 02:37 | 37.96852 | -76.67722 | 5539 ft | 135 kts | 149° |
| 2026-05-06 02:37 | 37.96180 | -76.66884 | 5536 ft | 135 kts | 149° |
| 2026-05-06 02:37 | 37.95509 | -76.66050 | 5536 ft | 135 kts | 149° |
| 2026-05-06 02:38 | 37.94839 | -76.65220 | 5536 ft | 134 kts | 149° |
| 2026-05-06 02:38 | 37.94171 | -76.64391 | 5536 ft | 134 kts | 149° |
| 2026-05-06 02:38 | 37.93513 | -76.63561 | 5536 ft | 134 kts | 149° |
| 2026-05-06 02:38 | 37.92856 | -76.62730 | 5535 ft | 133 kts | 149° |
| 2026-05-06 02:39 | 37.92199 | -76.61896 | 5536 ft | 134 kts | 149° |
| 2026-05-06 02:39 | 37.91542 | -76.61053 | 5536 ft | 134 kts | 149° |
| 2026-05-06 02:39 | 37.90884 | -76.60202 | 5534 ft | 135 kts | 149° |
| 2026-05-06 02:39 | 37.90227 | -76.59352 | 5536 ft | 135 kts | 149° |
| 2026-05-06 02:40 | 37.89568 | -76.58506 | 5536 ft | 135 kts | 149° |
| 2026-05-06 02:40 | 37.88908 | -76.57661 | 5536 ft | 135 kts | 149° |
| 2026-05-06 02:40 | 37.88256 | -76.56830 | 5545 ft | 134 kts | 149° |
| 2026-05-06 02:40 | 37.87593 | -76.55994 | 5545 ft | 135 kts | 149° |
| 2026-05-06 02:41 | 37.86925 | -76.55160 | 5544 ft | 134 kts | 149° |
| 2026-05-06 02:41 | 37.86255 | -76.54327 | 5544 ft | 135 kts | 149° |
| 2026-05-06 02:41 | 37.85584 | -76.53493 | 5543 ft | 135 kts | 149° |
| 2026-05-06 02:41 | 37.84912 | -76.52666 | 5543 ft | 135 kts | 149° |
| 2026-05-06 02:42 | 37.84245 | -76.51843 | 5543 ft | 134 kts | 149° |
| 2026-05-06 02:42 | 37.83582 | -76.51023 | 5544 ft | 134 kts | 149° |
| 2026-05-06 02:42 | 37.82921 | -76.50205 | 5539 ft | 130 kts | 149° |
| 2026-05-06 02:42 | 37.82279 | -76.49405 | 5549 ft | 130 kts | 149° |
| 2026-05-06 02:43 | 37.81629 | -76.48595 | 5551 ft | 132 kts | 149° |
| 2026-05-06 02:43 | 37.80980 | -76.47782 | 5552 ft | 131 kts | 149° |
| 2026-05-06 02:43 | 37.80328 | -76.46964 | 5551 ft | 132 kts | 149° |
| 2026-05-06 02:43 | 37.79676 | -76.46147 | 5551 ft | 131 kts | 149° |
| 2026-05-06 02:44 | 37.79024 | -76.45332 | 5551 ft | 132 kts | 149° |
| 2026-05-06 02:44 | 37.78372 | -76.44521 | 5551 ft | 132 kts | 149° |
| 2026-05-06 02:44 | 37.77727 | -76.43718 | 5551 ft | 132 kts | 149° |
| 2026-05-06 02:44 | 37.77073 | -76.42906 | 5553 ft | 132 kts | 149° |
| 2026-05-06 02:45 | 37.76419 | -76.42094 | 5554 ft | 132 kts | 149° |
| 2026-05-06 02:45 | 37.75765 | -76.41283 | 5555 ft | 132 kts | 149° |
| 2026-05-06 02:45 | 37.75112 | -76.40474 | 5556 ft | 131 kts | 149° |
| 2026-05-06 02:45 | 37.74458 | -76.39664 | 5556 ft | 131 kts | 149° |
| 2026-05-06 02:46 | 37.73806 | -76.38857 | 5557 ft | 131 kts | 149° |
| 2026-05-06 02:46 | 37.73153 | -76.38049 | 5558 ft | 132 kts | 149° |
| 2026-05-06 02:46 | 37.72498 | -76.37238 | 5559 ft | 132 kts | 149° |
| 2026-05-06 02:46 | 37.71844 | -76.36428 | 5559 ft | 132 kts | 149° |
| 2026-05-06 02:47 | 37.71192 | -76.35620 | 5572 ft | 131 kts | 149° |
| 2026-05-06 02:47 | 37.70546 | -76.34822 | 5573 ft | 131 kts | 149° |
| 2026-05-06 02:47 | 37.69890 | -76.34013 | 5573 ft | 132 kts | 149° |
| 2026-05-06 02:47 | 37.69233 | -76.33204 | 5574 ft | 132 kts | 149° |
| 2026-05-06 02:48 | 37.68575 | -76.32395 | 5574 ft | 132 kts | 149° |
| 2026-05-06 02:48 | 37.67920 | -76.31589 | 5575 ft | 132 kts | 149° |
| 2026-05-06 02:48 | 37.67264 | -76.30783 | 5575 ft | 131 kts | 149° |
| 2026-05-06 02:48 | 37.66611 | -76.29982 | 5579 ft | 131 kts | 152° |
| 2026-05-06 02:49 | 37.65899 | -76.29277 | 5573 ft | 128 kts | 170° |
| 2026-05-06 02:49 | 37.65140 | -76.28798 | 5577 ft | 122 kts | 170° |
| 2026-05-06 02:49 | 37.64377 | -76.28375 | 5577 ft | 120 kts | 170° |
| 2026-05-06 02:49 | 37.63607 | -76.27948 | 5576 ft | 121 kts | 171° |
| 2026-05-06 02:50 | 37.62863 | -76.27535 | 5578 ft | 121 kts | 171° |
| 2026-05-06 02:50 | 37.62071 | -76.27093 | 5577 ft | 121 kts | 171° |
| 2026-05-06 02:50 | 37.61313 | -76.26671 | 5577 ft | 120 kts | 171° |
| 2026-05-06 02:50 | 37.60533 | -76.26236 | 5577 ft | 120 kts | 171° |
| 2026-05-06 02:51 | 37.59779 | -76.25817 | 5578 ft | 120 kts | 171° |
| 2026-05-06 02:51 | 37.59006 | -76.25388 | 5578 ft | 119 kts | 171° |
| 2026-05-06 02:51 | 37.58242 | -76.24963 | 5577 ft | 120 kts | 171° |
| 2026-05-06 02:51 | 37.57479 | -76.24537 | 5577 ft | 120 kts | 171° |
| 2026-05-06 02:52 | 37.56710 | -76.24104 | 5582 ft | 120 kts | 171° |
| 2026-05-06 02:52 | 37.55944 | -76.23674 | 5584 ft | 120 kts | 171° |
| 2026-05-06 02:52 | 37.55177 | -76.23242 | 5583 ft | 120 kts | 171° |
| 2026-05-06 02:52 | 37.54408 | -76.22810 | 5582 ft | 120 kts | 171° |
| 2026-05-06 02:53 | 37.53650 | -76.22384 | 5583 ft | 121 kts | 171° |
| 2026-05-06 02:53 | 37.52881 | -76.21955 | 5582 ft | 120 kts | 171° |
| 2026-05-06 02:53 | 37.52114 | -76.21530 | 5597 ft | 120 kts | 171° |
| 2026-05-06 02:53 | 37.51343 | -76.21101 | 5597 ft | 121 kts | 171° |
| 2026-05-06 02:54 | 37.50572 | -76.20674 | 5597 ft | 121 kts | 171° |
| 2026-05-06 02:54 | 37.49797 | -76.20245 | 5598 ft | 121 kts | 171° |
| 2026-05-06 02:54 | 37.49036 | -76.19825 | 5598 ft | 120 kts | 171° |
| 2026-05-06 02:54 | 37.48274 | -76.19403 | 5598 ft | 121 kts | 171° |
| 2026-05-06 02:55 | 37.47498 | -76.18976 | 5599 ft | 120 kts | 171° |
| 2026-05-06 02:55 | 37.46729 | -76.18552 | 5604 ft | 121 kts | 171° |
| 2026-05-06 02:55 | 37.45962 | -76.18126 | 5603 ft | 121 kts | 171° |
| 2026-05-06 02:55 | 37.45205 | -76.17704 | 5604 ft | 121 kts | 171° |
| 2026-05-06 02:56 | 37.44429 | -76.17275 | 5604 ft | 121 kts | 171° |
| 2026-05-06 02:56 | 37.43652 | -76.16848 | 5604 ft | 123 kts | 171° |
| 2026-05-06 02:56 | 37.42872 | -76.16418 | 5603 ft | 122 kts | 171° |
| 2026-05-06 02:56 | 37.42089 | -76.16007 | 5602 ft | 123 kts | 183° |
| 2026-05-06 02:57 | 37.41295 | -76.15848 | 5603 ft | 115 kts | 185° |
| 2026-05-06 02:57 | 37.40511 | -76.15747 | 5604 ft | 113 kts | 185° |
| 2026-05-06 02:57 | 37.39727 | -76.15648 | 5604 ft | 113 kts | 185° |
| 2026-05-06 02:57 | 37.38945 | -76.15545 | 5604 ft | 114 kts | 185° |
| 2026-05-06 02:58 | 37.38158 | -76.15441 | 5604 ft | 113 kts | 185° |
| 2026-05-06 02:58 | 37.37384 | -76.15344 | 5604 ft | 114 kts | 185° |
| 2026-05-06 02:58 | 37.36618 | -76.15265 | 5610 ft | 110 kts | 185° |
| 2026-05-06 02:58 | 37.35845 | -76.15194 | 5611 ft | 110 kts | 185° |
| 2026-05-06 02:59 | 37.35078 | -76.15142 | 5609 ft | 109 kts | 194° |
| 2026-05-06 02:59 | 37.34354 | -76.15336 | 5609 ft | 108 kts | 199° |
| 2026-05-06 02:59 | 37.33628 | -76.15543 | 5609 ft | 107 kts | 199° |
| 2026-05-06 02:59 | 37.32901 | -76.15748 | 5609 ft | 107 kts | 199° |
| 2026-05-06 03:00 | 37.32175 | -76.15959 | 5615 ft | 107 kts | 199° |
| 2026-05-06 03:00 | 37.31452 | -76.16171 | 5613 ft | 107 kts | 199° |
| 2026-05-06 03:00 | 37.30735 | -76.16375 | 5612 ft | 106 kts | 199° |
| 2026-05-06 03:00 | 37.30019 | -76.16580 | 5612 ft | 107 kts | 199° |
| 2026-05-06 03:01 | 37.29290 | -76.16792 | 5609 ft | 107 kts | 199° |
| 2026-05-06 03:01 | 37.28563 | -76.17008 | 5610 ft | 108 kts | 199° |
| 2026-05-06 03:01 | 37.27828 | -76.17225 | 5615 ft | 109 kts | 199° |
| 2026-05-06 03:01 | 37.27092 | -76.17437 | 5612 ft | 108 kts | 199° |
| 2026-05-06 03:02 | 37.26357 | -76.17654 | 5613 ft | 108 kts | 199° |
| 2026-05-06 03:02 | 37.25631 | -76.17878 | 5612 ft | 108 kts | 199° |
| 2026-05-06 03:02 | 37.24908 | -76.18102 | 5611 ft | 107 kts | 199° |
| 2026-05-06 03:02 | 37.24184 | -76.18328 | 5611 ft | 107 kts | 199° |
| 2026-05-06 03:03 | 37.23465 | -76.18538 | 5612 ft | 108 kts | 199° |
| 2026-05-06 03:03 | 37.22721 | -76.18753 | 5612 ft | 107 kts | 199° |
| 2026-05-06 03:03 | 37.22004 | -76.18961 | 5611 ft | 107 kts | 199° |
| 2026-05-06 03:03 | 37.21274 | -76.19178 | 5611 ft | 107 kts | 199° |
| 2026-05-06 03:04 | 37.20549 | -76.19400 | 5612 ft | 107 kts | 199° |
| 2026-05-06 03:04 | 37.19822 | -76.19616 | 5612 ft | 107 kts | 199° |
| 2026-05-06 03:04 | 37.19096 | -76.19833 | 5612 ft | 107 kts | 199° |
| 2026-05-06 03:04 | 37.18370 | -76.20046 | 5612 ft | 107 kts | 199° |
| 2026-05-06 03:05 | 37.17643 | -76.20264 | 5611 ft | 108 kts | 199° |
| 2026-05-06 03:05 | 37.16920 | -76.20480 | 5611 ft | 108 kts | 199° |
| 2026-05-06 03:05 | 37.16193 | -76.20697 | 5611 ft | 107 kts | 199° |
| 2026-05-06 03:05 | 37.15468 | -76.20914 | 5612 ft | 108 kts | 199° |
| 2026-05-06 03:06 | 37.14744 | -76.21129 | 5611 ft | 106 kts | 199° |
| 2026-05-06 03:06 | 37.14026 | -76.21352 | 5613 ft | 107 kts | 199° |
| 2026-05-06 03:06 | 37.13313 | -76.21587 | 5607 ft | 106 kts | 199° |
| 2026-05-06 03:06 | 37.12594 | -76.21823 | 5611 ft | 107 kts | 199° |
| 2026-05-06 03:07 | 37.11868 | -76.22059 | 5607 ft | 107 kts | 199° |
| 2026-05-06 03:07 | 37.11147 | -76.22293 | 5611 ft | 107 kts | 199° |
| 2026-05-06 03:07 | 37.10423 | -76.22529 | 5610 ft | 106 kts | 199° |
| 2026-05-06 03:07 | 37.09718 | -76.22760 | 5610 ft | 107 kts | 199° |
| 2026-05-06 03:08 | 37.08999 | -76.22998 | 5604 ft | 106 kts | 199° |
| 2026-05-06 03:08 | 37.08280 | -76.23237 | 5610 ft | 106 kts | 199° |
| 2026-05-06 03:08 | 37.07562 | -76.23473 | 5611 ft | 107 kts | 199° |
| 2026-05-06 03:08 | 37.06840 | -76.23706 | 5611 ft | 108 kts | 199° |
| 2026-05-06 03:09 | 37.06120 | -76.23938 | 5607 ft | 106 kts | 199° |
| 2026-05-06 03:09 | 37.05404 | -76.24171 | 5610 ft | 107 kts | 199° |
| 2026-05-06 03:09 | 37.04694 | -76.24405 | 5610 ft | 106 kts | 199° |
| 2026-05-06 03:09 | 37.03983 | -76.24640 | 5610 ft | 108 kts | 199° |
| 2026-05-06 03:10 | 37.03260 | -76.24870 | 5614 ft | 107 kts | 199° |
| 2026-05-06 03:10 | 37.02534 | -76.25103 | 5620 ft | 108 kts | 199° |
| 2026-05-06 03:10 | 37.01811 | -76.25336 | 5615 ft | 107 kts | 199° |
| 2026-05-06 03:10 | 37.01095 | -76.25575 | 5614 ft | 107 kts | 199° |
| 2026-05-06 03:11 | 37.00380 | -76.25815 | 5615 ft | 107 kts | 199° |
| 2026-05-06 03:11 | 36.99665 | -76.26054 | 5620 ft | 107 kts | 199° |
| 2026-05-06 03:11 | 36.98947 | -76.26291 | 5619 ft | 107 kts | 199° |
| 2026-05-06 03:11 | 36.98219 | -76.26520 | 5620 ft | 107 kts | 199° |
| 2026-05-06 03:12 | 36.97502 | -76.26746 | 5619 ft | 107 kts | 199° |
| 2026-05-06 03:12 | 36.96778 | -76.26972 | 5614 ft | 107 kts | 199° |
| 2026-05-06 03:12 | 36.96054 | -76.27207 | 5620 ft | 108 kts | 199° |
| 2026-05-06 03:12 | 36.95327 | -76.27448 | 5620 ft | 108 kts | 199° |
| 2026-05-06 03:13 | 36.94598 | -76.27689 | 5621 ft | 108 kts | 199° |
| 2026-05-06 03:13 | 36.93872 | -76.27927 | 5615 ft | 107 kts | 199° |
| 2026-05-06 03:13 | 36.93151 | -76.28167 | 5619 ft | 107 kts | 199° |
| 2026-05-06 03:13 | 36.92428 | -76.28408 | 5619 ft | 109 kts | 199° |
| 2026-05-06 03:14 | 36.91691 | -76.28654 | 5608 ft | 109 kts | 199° |
| 2026-05-06 03:14 | 36.90957 | -76.28910 | 5614 ft | 110 kts | 199° |
| 2026-05-06 03:14 | 36.90235 | -76.29157 | 5615 ft | 107 kts | 199° |
| 2026-05-06 03:14 | 36.89527 | -76.29410 | 5621 ft | 108 kts | 199° |
| 2026-05-06 03:15 | 36.88801 | -76.29671 | 5613 ft | 108 kts | 199° |
| 2026-05-06 03:15 | 36.88076 | -76.29932 | 5621 ft | 110 kts | 199° |
| 2026-05-06 03:15 | 36.87338 | -76.30188 | 5620 ft | 109 kts | 199° |
| 2026-05-06 03:15 | 36.86604 | -76.30436 | 5620 ft | 110 kts | 199° |
| 2026-05-06 03:16 | 36.85870 | -76.30686 | 5619 ft | 108 kts | 199° |
| 2026-05-06 03:16 | 36.85143 | -76.30941 | 5620 ft | 108 kts | 199° |
| 2026-05-06 03:16 | 36.84414 | -76.31206 | 5620 ft | 109 kts | 199° |
| 2026-05-06 03:16 | 36.83692 | -76.31467 | 5615 ft | 109 kts | 199° |
| 2026-05-06 03:17 | 36.82962 | -76.31728 | 5620 ft | 109 kts | 199° |
| 2026-05-06 03:17 | 36.82232 | -76.31978 | 5632 ft | 109 kts | 199° |
| 2026-05-06 03:17 | 36.81503 | -76.32223 | 5638 ft | 109 kts | 199° |
| 2026-05-06 03:17 | 36.80782 | -76.32466 | 5637 ft | 107 kts | 199° |
| 2026-05-06 03:18 | 36.80069 | -76.32711 | 5637 ft | 107 kts | 199° |
| 2026-05-06 03:18 | 36.79347 | -76.32966 | 5638 ft | 108 kts | 199° |
| 2026-05-06 03:18 | 36.78622 | -76.33220 | 5632 ft | 109 kts | 199° |
| 2026-05-06 03:18 | 36.77895 | -76.33474 | 5636 ft | 107 kts | 199° |
| 2026-05-06 03:19 | 36.77175 | -76.33717 | 5638 ft | 107 kts | 199° |
| 2026-05-06 03:19 | 36.76452 | -76.33963 | 5633 ft | 107 kts | 199° |
| 2026-05-06 03:19 | 36.75730 | -76.34208 | 5639 ft | 108 kts | 199° |
| 2026-05-06 03:19 | 36.75001 | -76.34461 | 5646 ft | 108 kts | 199° |
| 2026-05-06 03:20 | 36.73543 | -76.34956 | 5647 ft | 108 kts | 199° |
| 2026-05-06 03:20 | 36.72817 | -76.35201 | 5648 ft | 108 kts | 199° |
| 2026-05-06 03:20 | 36.72093 | -76.35449 | 5648 ft | 108 kts | 199° |
| 2026-05-06 03:21 | 36.71367 | -76.35704 | 5648 ft | 108 kts | 199° |
| 2026-05-06 03:21 | 36.70642 | -76.35967 | 5646 ft | 109 kts | 199° |
| 2026-05-06 03:21 | 36.69915 | -76.36230 | 5643 ft | 108 kts | 199° |
| 2026-05-06 03:21 | 36.69439 | -76.36401 | 5648 ft | 108 kts | 199° |
| 2026-05-06 03:22 | 36.68714 | -76.36654 | 5649 ft | 109 kts | 199° |
| 2026-05-06 03:22 | 36.67977 | -76.36920 | 5643 ft | 110 kts | 199° |
| 2026-05-06 03:22 | 36.67243 | -76.37187 | 5649 ft | 109 kts | 200° |
| 2026-05-06 03:22 | 36.66513 | -76.37453 | 5643 ft | 110 kts | 200° |
| 2026-05-06 03:23 | 36.65777 | -76.37720 | 5649 ft | 110 kts | 200° |
| 2026-05-06 03:23 | 36.65039 | -76.37989 | 5648 ft | 111 kts | 200° |
| 2026-05-06 03:23 | 36.64065 | -76.38349 | 5639 ft | 109 kts | 200° |
| 2026-05-06 03:23 | 36.63573 | -76.38529 | 5648 ft | 109 kts | 200° |
| 2026-05-06 03:24 | 36.62851 | -76.38792 | 5647 ft | 110 kts | 200° |
| 2026-05-06 03:24 | 36.62120 | -76.39062 | 5641 ft | 111 kts | 200° |
| 2026-05-06 03:24 | 36.61382 | -76.39336 | 5648 ft | 111 kts | 200° |
| 2026-05-06 03:24 | 36.60642 | -76.39613 | 5643 ft | 110 kts | 200° |
| 2026-05-06 03:25 | 36.59907 | -76.39878 | 5648 ft | 109 kts | 200° |
| 2026-05-06 03:25 | 36.59174 | -76.40141 | 5646 ft | 110 kts | 200° |
| 2026-05-06 03:25 | 36.58440 | -76.40405 | 5647 ft | 109 kts | 200° |
| 2026-05-06 03:25 | 36.57704 | -76.40676 | 5637 ft | 110 kts | 200° |
| 2026-05-06 03:26 | 36.56971 | -76.40950 | 5645 ft | 110 kts | 200° |
| 2026-05-06 03:26 | 36.56236 | -76.41222 | 5636 ft | 109 kts | 200° |
| 2026-05-06 03:26 | 36.55503 | -76.41490 | 5635 ft | 110 kts | 200° |
| 2026-05-06 03:26 | 36.54768 | -76.41759 | 5639 ft | 109 kts | 200° |
| 2026-05-06 03:27 | 36.53972 | -76.41777 | 5593 ft | 126 kts | 173° |
| 2026-05-06 03:27 | 36.53228 | -76.41101 | 5501 ft | 143 kts | 142° |
| 2026-05-06 03:27 | 36.52632 | -76.40251 | 5626 ft | 127 kts | 142° |
| 2026-05-06 03:27 | 36.52038 | -76.39409 | 5686 ft | 127 kts | 142° |
| 2026-05-06 03:28 | 36.51460 | -76.38587 | 5677 ft | 128 kts | 142° |
| 2026-05-06 03:28 | 36.50874 | -76.37755 | 5667 ft | 128 kts | 142° |
| 2026-05-06 03:28 | 36.50288 | -76.36921 | 5661 ft | 128 kts | 142° |
| 2026-05-06 03:28 | 36.49701 | -76.36086 | 5655 ft | 128 kts | 142° |
| 2026-05-06 03:29 | 36.49114 | -76.35250 | 5661 ft | 128 kts | 142° |
| 2026-05-06 03:29 | 36.48528 | -76.34415 | 5650 ft | 128 kts | 142° |
| 2026-05-06 03:29 | 36.47941 | -76.33579 | 5658 ft | 128 kts | 142° |
| 2026-05-06 03:29 | 36.47356 | -76.32745 | 5654 ft | 128 kts | 142° |
| 2026-05-06 03:30 | 36.46771 | -76.31910 | 5655 ft | 128 kts | 142° |
| 2026-05-06 03:30 | 36.46198 | -76.31089 | 5659 ft | 128 kts | 142° |
| 2026-05-06 03:30 | 36.45612 | -76.30253 | 5643 ft | 127 kts | 142° |
| 2026-05-06 03:30 | 36.45033 | -76.29422 | 5500 ft | 128 kts | 142° |
| 2026-05-06 03:31 | 36.44451 | -76.28589 | 5535 ft | 128 kts | 142° |
| 2026-05-06 03:31 | 36.43868 | -76.27755 | 5538 ft | 127 kts | 142° |
| 2026-05-06 03:31 | 36.43275 | -76.26940 | 5541 ft | 127 kts | 142° |
| 2026-05-06 03:31 | 36.42681 | -76.26120 | 5541 ft | 128 kts | 142° |
| 2026-05-06 03:32 | 36.42087 | -76.25299 | 5541 ft | 128 kts | 142° |
| 2026-05-06 03:32 | 36.41492 | -76.24477 | 5540 ft | 128 kts | 142° |
| 2026-05-06 03:32 | 36.40895 | -76.23659 | 5541 ft | 128 kts | 142° |
| 2026-05-06 03:32 | 36.40295 | -76.22840 | 5541 ft | 127 kts | 142° |
| 2026-05-06 03:33 | 36.39705 | -76.22035 | 5542 ft | 127 kts | 142° |
| 2026-05-06 03:33 | 36.39104 | -76.21219 | 5543 ft | 127 kts | 142° |
| 2026-05-06 03:33 | 36.38516 | -76.20421 | 5543 ft | 128 kts | 142° |
| 2026-05-06 03:33 | 36.37920 | -76.19606 | 5543 ft | 127 kts | 146° |
| 2026-05-06 03:34 | 36.37312 | -76.18775 | 5542 ft | 128 kts | 148° |
| 2026-05-06 03:34 | 36.36716 | -76.17954 | 5544 ft | 129 kts | 148° |
| 2026-05-06 03:34 | 36.36119 | -76.17126 | 5542 ft | 131 kts | 154° |
| 2026-05-06 03:34 | 36.35448 | -76.16404 | 5585 ft | 121 kts | 172° |
| 2026-05-06 03:35 | 36.34685 | -76.16021 | 5644 ft | 123 kts | 178° |
| 2026-05-06 03:35 | 36.34196 | -76.15006 | 4871 ft | 174 kts | 98° |
| 2026-05-06 03:35 | 36.35063 | -76.13991 | 3432 ft | 183 kts | 351° |
| 2026-05-06 03:35 | 36.35890 | -76.14699 | 3394 ft | 132 kts | 308° |
| 2026-05-06 03:36 | 36.36860 | -76.15026 | 3453 ft | 165 kts | 355° |
| 2026-05-06 03:36 | 36.38063 | -76.14898 | 3241 ft | 179 kts | 3° |
| 2026-05-06 03:36 | 36.39320 | -76.14719 | 3073 ft | 184 kts | 3° |
| 2026-05-06 03:36 | 36.40597 | -76.14498 | 2926 ft | 186 kts | 7° |
| 2026-05-06 03:37 | 36.41433 | -76.13916 | 2169 ft | 67 kts | 211° |
| 2026-05-06 03:37 | 36.41360 | -76.13759 | 2139 ft | 46 kts | 207° |
| 2026-05-06 03:37 | 36.40811 | -76.14007 | 1899 ft | 115 kts | 206° |
| 2026-05-06 03:37 | 36.40055 | -76.14458 | 1614 ft | 121 kts | 206° |
| 2026-05-06 03:38 | 36.39263 | -76.14753 | 1668 ft | 116 kts | 202° |
| 2026-05-06 03:38 | 36.38513 | -76.15073 | 1726 ft | 113 kts | 204° |
| 2026-05-06 03:38 | 36.37777 | -76.15414 | 1733 ft | 111 kts | 204° |
| 2026-05-06 03:38 | 36.37086 | -76.15791 | 1841 ft | 109 kts | 207° |
| 2026-05-06 03:39 | 36.36357 | -76.16215 | 1702 ft | 120 kts | 207° |
| 2026-05-06 03:39 | 36.35554 | -76.16585 | 1607 ft | 123 kts | 201° |
| 2026-05-06 03:39 | 36.34784 | -76.16848 | 1760 ft | 114 kts | 199° |
| 2026-05-06 03:39 | 36.33938 | -76.17070 | 1493 ft | 131 kts | 194° |
| 2026-05-06 03:40 | 36.33030 | -76.17230 | 1353 ft | 131 kts | 193° |
| 2026-05-06 03:40 | 36.32155 | -76.17381 | 953 ft | 117 kts | 190° |
| 2026-05-06 03:40 | 36.31417 | -76.17451 | 802 ft | 96 kts | 186° |
| 2026-05-06 03:40 | 36.30822 | -76.17499 | 830 ft | 85 kts | 189° |
| 2026-05-06 03:41 | 36.30175 | -76.17527 | 777 ft | 103 kts | 188° |
| 2026-05-06 03:41 | 36.29435 | -76.17626 | 495 ft | 104 kts | 188° |
| 2026-05-06 03:41 | 36.28832 | -76.17667 | 404 ft | 78 kts | 183° |
| 2026-05-06 03:41 | 36.28252 | -76.17686 | 367 ft | 92 kts | 184° |
| 2026-05-06 03:42 | 36.27583 | -76.17640 | 99 ft | 100 kts | 190° |
| 2026-05-06 03:42 | 36.27163 | -76.17485 | 329 ft | 59 kts | 216° |
| 2026-05-06 03:42 | 36.26667 | -76.17486 | 219 ft | 83 kts | 203° |
| 2026-05-06 03:42 | 36.26033 | -76.17576 | 152 ft | 96 kts | 227° |
| 2026-05-06 03:43 | 36.25564 | -76.17816 | 97 ft | 17 kts | 344° |